sensor_id;sensor_type;location;lat;lon;timestamp;pressure;altitude;pressure_sealevel;temperature;humidity
71457;BME280;59263;48.160;11.752;2022-09-13T00:00:51;95677.16;;;11.80;100.00
71457;BME280;59263;48.160;11.752;2022-09-13T00:03:18;95668.69;;;11.78;100.00
71457;BME280;59263;48.160;11.752;2022-09-13T00:05:44;95668.34;;;11.73;100.00
71457;BME280;59263;48.160;11.752;2022-09-13T00:08:10;95653.72;;;11.64;100.00
71457;BME280;59263;48.160;11.752;2022-09-13T00:10:37;95651.59;;;11.59;100.00
71457;BME280;59263;48.160;11.752;2022-09-13T00:13:07;95651.72;;;11.50;100.00
71457;BME280;59263;48.160;11.752;2022-09-13T00:15:34;95652.00;;;11.47;100.00
71457;BME280;59263;48.160;11.752;2022-09-13T00:17:59;95645.81;;;11.39;100.00
71457;BME280;59263;48.160;11.752;2022-09-13T00:20:25;95654.56;;;11.38;100.00
71457;BME280;59263;48.160;11.752;2022-09-13T00:22:50;95637.88;;;11.41;100.00
71457;BME280;59263;48.160;11.752;2022-09-13T00:25:16;95634.63;;;11.39;100.00
71457;BME280;59263;48.160;11.752;2022-09-13T00:27:41;95630.41;;;11.38;100.00
71457;BME280;59263;48.160;11.752;2022-09-13T00:30:09;95626.69;;;11.41;100.00
71457;BME280;59263;48.160;11.752;2022-09-13T00:32:35;95623.91;;;11.34;100.00
71457;BME280;59263;48.160;11.752;2022-09-13T00:35:02;95619.19;;;11.29;100.00
71457;BME280;59263;48.160;11.752;2022-09-13T00:37:28;95624.03;;;11.24;100.00
71457;BME280;59263;48.160;11.752;2022-09-13T00:39:53;95623.50;;;11.21;100.00
71457;BME280;59263;48.160;11.752;2022-09-13T00:42:27;95620.72;;;11.14;100.00
71457;BME280;59263;48.160;11.752;2022-09-13T00:45:14;95608.00;;;11.03;100.00
71457;BME280;59263;48.160;11.752;2022-09-13T00:47:57;95614.75;;;10.96;100.00
71457;BME280;59263;48.160;11.752;2022-09-13T00:50:42;95617.63;;;10.93;100.00
71457;BME280;59263;48.160;11.752;2022-09-13T00:53:13;95620.91;;;10.95;100.00
71457;BME280;59263;48.160;11.752;2022-09-13T00:55:43;95614.69;;;10.87;100.00
71457;BME280;59263;48.160;11.752;2022-09-13T00:58:18;95621.47;;;10.88;100.00
71457;BME280;59263;48.160;11.752;2022-09-13T01:00:46;95622.91;;;10.83;100.00
71457;BME280;59263;48.160;11.752;2022-09-13T01:03:12;95625.84;;;10.70;100.00
71457;BME280;59263;48.160;11.752;2022-09-13T01:05:45;95627.94;;;10.66;100.00
71457;BME280;59263;48.160;11.752;2022-09-13T01:08:12;95628.97;;;10.56;100.00
71457;BME280;59263;48.160;11.752;2022-09-13T01:10:44;95628.88;;;10.48;100.00
71457;BME280;59263;48.160;11.752;2022-09-13T01:13:17;95622.00;;;10.56;100.00
71457;BME280;59263;48.160;11.752;2022-09-13T01:15:43;95603.47;;;10.61;100.00
71457;BME280;59263;48.160;11.752;2022-09-13T01:18:09;95607.00;;;10.60;100.00
71457;BME280;59263;48.160;11.752;2022-09-13T01:35:59;95590.66;;;10.59;100.00
71457;BME280;59263;48.160;11.752;2022-09-13T01:43:51;95584.69;;;10.59;100.00
71457;BME280;59263;48.160;11.752;2022-09-13T01:46:31;95584.38;;;10.62;100.00
71457;BME280;59263;48.160;11.752;2022-09-13T01:49:21;95575.94;;;10.60;100.00
71457;BME280;59263;48.160;11.752;2022-09-13T01:52:06;95579.22;;;10.62;100.00
71457;BME280;59263;48.160;11.752;2022-09-13T01:55:11;95570.19;;;10.66;100.00
71457;BME280;59263;48.160;11.752;2022-09-13T01:57:45;95567.53;;;10.58;100.00
71457;BME280;59263;48.160;11.752;2022-09-13T02:00:15;95583.66;;;10.52;100.00
71457;BME280;59263;48.160;11.752;2022-09-13T02:03:22;95577.72;;;10.41;100.00
71457;BME280;59263;48.160;11.752;2022-09-13T02:05:57;95585.41;;;10.33;100.00
71457;BME280;59263;48.160;11.752;2022-09-13T02:08:31;95581.56;;;10.37;100.00
71457;BME280;59263;48.160;11.752;2022-09-13T02:11:10;95581.88;;;10.34;100.00
71457;BME280;59263;48.160;11.752;2022-09-13T02:13:40;95588.69;;;10.35;100.00
71457;BME280;59263;48.160;11.752;2022-09-13T02:16:15;95591.84;;;10.29;100.00
71457;BME280;59263;48.160;11.752;2022-09-13T02:18:48;95591.75;;;10.21;100.00
71457;BME280;59263;48.160;11.752;2022-09-13T02:21:25;95583.31;;;10.19;100.00
71457;BME280;59263;48.160;11.752;2022-09-13T02:24:05;95584.94;;;10.20;100.00
71457;BME280;59263;48.160;11.752;2022-09-13T02:26:33;95587.66;;;10.18;100.00
71457;BME280;59263;48.160;11.752;2022-09-13T02:29:04;95576.50;;;10.18;100.00
71457;BME280;59263;48.160;11.752;2022-09-13T02:31:40;95588.47;;;10.19;100.00
71457;BME280;59263;48.160;11.752;2022-09-13T02:34:20;95591.50;;;10.14;100.00
71457;BME280;59263;48.160;11.752;2022-09-13T02:36:47;95594.13;;;10.05;100.00
71457;BME280;59263;48.160;11.752;2022-09-13T02:39:15;95588.59;;;10.00;100.00
71457;BME280;59263;48.160;11.752;2022-09-13T02:44:32;95589.66;;;10.07;100.00
71457;BME280;59263;48.160;11.752;2022-09-13T02:58:19;95592.75;;;10.10;100.00
71457;BME280;59263;48.160;11.752;2022-09-13T03:00:46;95600.00;;;10.07;100.00
71457;BME280;59263;48.160;11.752;2022-09-13T03:03:14;95598.66;;;10.03;100.00
71457;BME280;59263;48.160;11.752;2022-09-13T03:05:40;95596.50;;;9.98;100.00
71457;BME280;59263;48.160;11.752;2022-09-13T03:08:07;95596.00;;;9.94;100.00
71457;BME280;59263;48.160;11.752;2022-09-13T03:13:30;95605.00;;;9.90;100.00
71457;BME280;59263;48.160;11.752;2022-09-13T03:24:37;95601.22;;;9.75;100.00
71457;BME280;59263;48.160;11.752;2022-09-13T03:30:08;95596.13;;;9.65;100.00
71457;BME280;59263;48.160;11.752;2022-09-13T03:32:52;95598.44;;;9.68;100.00
71457;BME280;59263;48.160;11.752;2022-09-13T03:35:36;95596.94;;;9.66;100.00
71457;BME280;59263;48.160;11.752;2022-09-13T03:38:10;95591.50;;;9.69;100.00
71457;BME280;59263;48.160;11.752;2022-09-13T03:40:47;95583.59;;;9.70;100.00
71457;BME280;59263;48.160;11.752;2022-09-13T03:43:24;95579.75;;;9.75;100.00
71457;BME280;59263;48.160;11.752;2022-09-13T03:46:01;95579.81;;;9.65;100.00
71457;BME280;59263;48.160;11.752;2022-09-13T03:48:30;95568.81;;;9.63;100.00
71457;BME280;59263;48.160;11.752;2022-09-13T03:50:57;95561.28;;;9.69;100.00
71457;BME280;59263;48.160;11.752;2022-09-13T03:53:24;95571.63;;;9.69;100.00
71457;BME280;59263;48.160;11.752;2022-09-13T03:55:50;95587.94;;;9.70;100.00
71457;BME280;59263;48.160;11.752;2022-09-13T03:58:17;95586.88;;;9.63;100.00
71457;BME280;59263;48.160;11.752;2022-09-13T04:00:43;95599.16;;;9.61;100.00
71457;BME280;59263;48.160;11.752;2022-09-13T04:03:09;95590.16;;;9.65;100.00
71457;BME280;59263;48.160;11.752;2022-09-13T04:05:34;95590.44;;;9.62;100.00
71457;BME280;59263;48.160;11.752;2022-09-13T04:08:01;95589.91;;;9.58;100.00
71457;BME280;59263;48.160;11.752;2022-09-13T04:10:29;95582.53;;;9.63;100.00
71457;BME280;59263;48.160;11.752;2022-09-13T04:12:56;95581.44;;;9.66;100.00
71457;BME280;59263;48.160;11.752;2022-09-13T04:15:21;95589.88;;;9.68;100.00
71457;BME280;59263;48.160;11.752;2022-09-13T04:17:47;95574.94;;;9.62;100.00
71457;BME280;59263;48.160;11.752;2022-09-13T04:20:12;95582.97;;;9.59;100.00
71457;BME280;59263;48.160;11.752;2022-09-13T04:22:38;95585.50;;;9.68;100.00
71457;BME280;59263;48.160;11.752;2022-09-13T04:25:04;95573.31;;;9.61;100.00
71457;BME280;59263;48.160;11.752;2022-09-13T04:27:30;95587.94;;;9.70;100.00
71457;BME280;59263;48.160;11.752;2022-09-13T04:29:55;95588.75;;;9.70;100.00
71457;BME280;59263;48.160;11.752;2022-09-13T04:32:20;95592.16;;;9.71;100.00
71457;BME280;59263;48.160;11.752;2022-09-13T04:34:45;95586.16;;;9.70;100.00
71457;BME280;59263;48.160;11.752;2022-09-13T04:37:11;95587.13;;;9.69;100.00
71457;BME280;59263;48.160;11.752;2022-09-13T04:39:37;95587.66;;;9.73;100.00
71457;BME280;59263;48.160;11.752;2022-09-13T04:42:03;95585.44;;;9.78;100.00
71457;BME280;59263;48.160;11.752;2022-09-13T04:44:28;95589.81;;;9.78;100.00
71457;BME280;59263;48.160;11.752;2022-09-13T04:46:54;95593.88;;;9.80;100.00
71457;BME280;59263;48.160;11.752;2022-09-13T04:49:19;95594.16;;;9.77;100.00
71457;BME280;59263;48.160;11.752;2022-09-13T04:51:46;95583.53;;;9.80;100.00
71457;BME280;59263;48.160;11.752;2022-09-13T04:54:12;95594.44;;;9.74;100.00
71457;BME280;59263;48.160;11.752;2022-09-13T04:56:37;95600.13;;;9.78;100.00
71457;BME280;59263;48.160;11.752;2022-09-13T04:59:02;95597.44;;;9.79;100.00
71457;BME280;59263;48.160;11.752;2022-09-13T05:01:28;95600.28;;;9.76;100.00
71457;BME280;59263;48.160;11.752;2022-09-13T05:03:53;95607.19;;;9.85;100.00
71457;BME280;59263;48.160;11.752;2022-09-13T05:06:20;95609.91;;;9.84;100.00
71457;BME280;59263;48.160;11.752;2022-09-13T05:08:52;95611.00;;;9.81;100.00
71457;BME280;59263;48.160;11.752;2022-09-13T05:11:20;95609.84;;;9.93;100.00
71457;BME280;59263;48.160;11.752;2022-09-13T05:13:49;95608.91;;;9.94;100.00
71457;BME280;59263;48.160;11.752;2022-09-13T05:16:17;95605.19;;;9.97;100.00
71457;BME280;59263;48.160;11.752;2022-09-13T05:18:42;95595.69;;;9.98;100.00
71457;BME280;59263;48.160;11.752;2022-09-13T05:21:07;95595.91;;;10.04;100.00
71457;BME280;59263;48.160;11.752;2022-09-13T05:23:33;95603.53;;;10.06;100.00
71457;BME280;59263;48.160;11.752;2022-09-13T05:26:01;95599.72;;;10.10;100.00
71457;BME280;59263;48.160;11.752;2022-09-13T05:28:28;95604.00;;;10.19;100.00
71457;BME280;59263;48.160;11.752;2022-09-13T05:33:39;95597.38;;;10.34;100.00
71457;BME280;59263;48.160;11.752;2022-09-13T05:36:05;95604.28;;;10.44;100.00
71457;BME280;59263;48.160;11.752;2022-09-13T05:38:31;95608.56;;;10.53;100.00
71457;BME280;59263;48.160;11.752;2022-09-13T05:40:58;95612.50;;;10.57;100.00
71457;BME280;59263;48.160;11.752;2022-09-13T05:43:25;95610.25;;;10.62;100.00
71457;BME280;59263;48.160;11.752;2022-09-13T05:45:50;95616.47;;;10.69;100.00
71457;BME280;59263;48.160;11.752;2022-09-13T05:48:16;95617.34;;;10.78;100.00
71457;BME280;59263;48.160;11.752;2022-09-13T05:50:41;95613.72;;;10.88;100.00
71457;BME280;59263;48.160;11.752;2022-09-13T05:53:07;95607.78;;;10.96;100.00
71457;BME280;59263;48.160;11.752;2022-09-13T05:55:32;95601.59;;;11.15;100.00
71457;BME280;59263;48.160;11.752;2022-09-13T05:58:00;95596.13;;;11.18;100.00
71457;BME280;59263;48.160;11.752;2022-09-13T06:00:26;95597.50;;;11.30;100.00
71457;BME280;59263;48.160;11.752;2022-09-13T06:02:51;95584.91;;;11.35;100.00
71457;BME280;59263;48.160;11.752;2022-09-13T06:05:16;95598.88;;;11.43;100.00
71457;BME280;59263;48.160;11.752;2022-09-13T06:07:42;95595.00;;;11.47;100.00
71457;BME280;59263;48.160;11.752;2022-09-13T06:10:08;95590.53;;;11.57;100.00
71457;BME280;59263;48.160;11.752;2022-09-13T06:12:34;95599.97;;;11.66;100.00
71457;BME280;59263;48.160;11.752;2022-09-13T06:15:00;95591.25;;;11.75;100.00
71457;BME280;59263;48.160;11.752;2022-09-13T06:17:25;95581.28;;;11.89;100.00
71457;BME280;59263;48.160;11.752;2022-09-13T06:19:50;95580.69;;;12.03;100.00
71457;BME280;59263;48.160;11.752;2022-09-13T06:22:16;95575.69;;;12.18;100.00
71457;BME280;59263;48.160;11.752;2022-09-13T06:24:41;95575.56;;;12.35;100.00
71457;BME280;59263;48.160;11.752;2022-09-13T06:27:06;95584.97;;;12.45;100.00
71457;BME280;59263;48.160;11.752;2022-09-13T06:29:32;95599.28;;;12.57;100.00
71457;BME280;59263;48.160;11.752;2022-09-13T06:31:57;95606.59;;;12.62;100.00
71457;BME280;59263;48.160;11.752;2022-09-13T06:34:22;95595.41;;;12.69;100.00
71457;BME280;59263;48.160;11.752;2022-09-13T06:36:48;95587.91;;;12.82;100.00
71457;BME280;59263;48.160;11.752;2022-09-13T06:39:13;95587.13;;;12.98;100.00
71457;BME280;59263;48.160;11.752;2022-09-13T06:41:38;95584.69;;;13.13;100.00
71457;BME280;59263;48.160;11.752;2022-09-13T06:44:04;95581.78;;;13.24;100.00
71457;BME280;59263;48.160;11.752;2022-09-13T06:46:31;95589.22;;;13.36;100.00
71457;BME280;59263;48.160;11.752;2022-09-13T06:49:02;95581.88;;;13.47;100.00
71457;BME280;59263;48.160;11.752;2022-09-13T06:51:28;95581.66;;;13.57;100.00
71457;BME280;59263;48.160;11.752;2022-09-13T06:53:55;95576.94;;;13.69;100.00
71457;BME280;59263;48.160;11.752;2022-09-13T06:56:22;95573.00;;;13.81;100.00
71457;BME280;59263;48.160;11.752;2022-09-13T06:58:49;95578.09;;;13.97;100.00
71457;BME280;59263;48.160;11.752;2022-09-13T07:01:16;95573.66;;;14.14;100.00
71457;BME280;59263;48.160;11.752;2022-09-13T07:03:52;95580.94;;;14.42;100.00
71457;BME280;59263;48.160;11.752;2022-09-13T07:06:26;95586.16;;;14.50;100.00
71457;BME280;59263;48.160;11.752;2022-09-13T07:08:53;95584.56;;;14.64;100.00
71457;BME280;59263;48.160;11.752;2022-09-13T07:11:20;95575.22;;;14.77;100.00
71457;BME280;59263;48.160;11.752;2022-09-13T07:13:49;95566.28;;;14.95;100.00
71457;BME280;59263;48.160;11.752;2022-09-13T07:16:16;95571.34;;;15.11;100.00
71457;BME280;59263;48.160;11.752;2022-09-13T07:18:41;95569.00;;;15.16;100.00
71457;BME280;59263;48.160;11.752;2022-09-13T07:21:09;95570.19;;;15.29;100.00
71457;BME280;59263;48.160;11.752;2022-09-13T07:23:36;95570.75;;;15.39;100.00
71457;BME280;59263;48.160;11.752;2022-09-13T07:26:02;95571.91;;;15.51;100.00
71457;BME280;59263;48.160;11.752;2022-09-13T07:28:41;95574.56;;;15.66;100.00
71457;BME280;59263;48.160;11.752;2022-09-13T07:31:15;95578.88;;;15.88;100.00
71457;BME280;59263;48.160;11.752;2022-09-13T07:33:43;95576.22;;;16.03;100.00
71457;BME280;59263;48.160;11.752;2022-09-13T07:36:09;95578.63;;;16.19;100.00
71457;BME280;59263;48.160;11.752;2022-09-13T07:38:37;95579.22;;;16.36;100.00
71457;BME280;59263;48.160;11.752;2022-09-13T07:41:03;95576.94;;;16.48;100.00
71457;BME280;59263;48.160;11.752;2022-09-13T07:43:31;95570.47;;;16.65;100.00
71457;BME280;59263;48.160;11.752;2022-09-13T07:46:02;95574.28;;;16.84;100.00
71457;BME280;59263;48.160;11.752;2022-09-13T07:48:30;95568.34;;;16.97;100.00
71457;BME280;59263;48.160;11.752;2022-09-13T07:51:04;95569.06;;;17.12;100.00
71457;BME280;59263;48.160;11.752;2022-09-13T07:53:30;95570.75;;;17.20;100.00
71457;BME280;59263;48.160;11.752;2022-09-13T07:56:19;95571.00;;;17.25;100.00
71457;BME280;59263;48.160;11.752;2022-09-13T07:58:46;95570.25;;;17.38;100.00
71457;BME280;59263;48.160;11.752;2022-09-13T08:01:15;95572.78;;;17.53;100.00
71457;BME280;59263;48.160;11.752;2022-09-13T08:03:41;95575.28;;;17.67;100.00
71457;BME280;59263;48.160;11.752;2022-09-13T08:06:07;95579.00;;;17.80;100.00
71457;BME280;59263;48.160;11.752;2022-09-13T08:08:34;95563.34;;;17.93;96.06
71457;BME280;59263;48.160;11.752;2022-09-13T08:11:00;95569.50;;;18.13;100.00
71457;BME280;59263;48.160;11.752;2022-09-13T08:13:26;95564.47;;;18.19;100.00
71457;BME280;59263;48.160;11.752;2022-09-13T08:15:53;95571.53;;;18.25;93.53
71457;BME280;59263;48.160;11.752;2022-09-13T08:18:19;95569.16;;;18.43;95.22
71457;BME280;59263;48.160;11.752;2022-09-13T08:20:45;95563.56;;;18.59;95.36
71457;BME280;59263;48.160;11.752;2022-09-13T08:23:11;95561.53;;;18.68;83.64
71457;BME280;59263;48.160;11.752;2022-09-13T08:25:38;95563.63;;;18.73;86.49
71457;BME280;59263;48.160;11.752;2022-09-13T08:28:17;95563.19;;;18.76;85.97
71457;BME280;59263;48.160;11.752;2022-09-13T08:30:43;95563.19;;;18.76;77.15
71457;BME280;59263;48.160;11.752;2022-09-13T08:33:10;95576.13;;;18.84;84.81
71457;BME280;59263;48.160;11.752;2022-09-13T08:35:36;95574.31;;;19.04;80.56
71457;BME280;59263;48.160;11.752;2022-09-13T08:38:03;95575.91;;;19.05;75.08
71457;BME280;59263;48.160;11.752;2022-09-13T08:40:52;95571.69;;;19.18;80.50
71457;BME280;59263;48.160;11.752;2022-09-13T08:43:20;95572.91;;;19.22;81.48
71457;BME280;59263;48.160;11.752;2022-09-13T08:45:50;95568.06;;;19.19;79.81
71457;BME280;59263;48.160;11.752;2022-09-13T08:48:31;95560.59;;;19.16;72.74
71457;BME280;59263;48.160;11.752;2022-09-13T08:51:03;95560.38;;;19.24;86.75
71457;BME280;59263;48.160;11.752;2022-09-13T08:53:30;95567.66;;;19.22;76.68
71457;BME280;59263;48.160;11.752;2022-09-13T08:56:09;95556.31;;;19.28;75.64
71457;BME280;59263;48.160;11.752;2022-09-13T09:06:42;95547.00;;;19.72;76.12
71457;BME280;59263;48.160;11.752;2022-09-13T09:09:18;95547.78;;;19.72;65.97
71457;BME280;59263;48.160;11.752;2022-09-13T09:11:50;95534.84;;;19.84;67.93
71457;BME280;59263;48.160;11.752;2022-09-13T09:14:32;95546.47;;;20.01;65.86
71457;BME280;59263;48.160;11.752;2022-09-13T09:17:04;95550.09;;;20.07;62.12
71457;BME280;59263;48.160;11.752;2022-09-13T09:19:35;95551.50;;;20.10;64.97
71457;BME280;59263;48.160;11.752;2022-09-13T09:22:22;95554.56;;;20.06;65.14
71457;BME280;59263;48.160;11.752;2022-09-13T09:24:56;95554.44;;;20.33;64.97
71457;BME280;59263;48.160;11.752;2022-09-13T09:27:22;95544.06;;;20.45;61.49
71457;BME280;59263;48.160;11.752;2022-09-13T09:29:50;95549.84;;;20.60;67.00
71457;BME280;59263;48.160;11.752;2022-09-13T09:35:30;95546.41;;;20.91;66.74
71457;BME280;59263;48.160;11.752;2022-09-13T09:38:23;95540.19;;;21.11;62.61
71457;BME280;59263;48.160;11.752;2022-09-13T09:40:51;95527.41;;;21.14;61.51
71457;BME280;59263;48.160;11.752;2022-09-13T09:43:30;95533.59;;;21.20;60.79
71457;BME280;59263;48.160;11.752;2022-09-13T09:45:58;95525.63;;;21.33;60.05
71457;BME280;59263;48.160;11.752;2022-09-13T09:48:29;95528.94;;;21.22;62.25
71457;BME280;59263;48.160;11.752;2022-09-13T09:51:00;95531.56;;;21.22;62.13
71457;BME280;59263;48.160;11.752;2022-09-13T09:53:34;95527.91;;;21.23;63.23
71457;BME280;59263;48.160;11.752;2022-09-13T09:56:24;95527.47;;;21.26;65.75
71457;BME280;59263;48.160;11.752;2022-09-13T09:58:51;95526.56;;;21.39;63.63
71457;BME280;59263;48.160;11.752;2022-09-13T10:01:24;95528.47;;;21.50;60.63
71457;BME280;59263;48.160;11.752;2022-09-13T10:04:18;95518.91;;;21.56;64.20
71457;BME280;59263;48.160;11.752;2022-09-13T10:06:44;95510.84;;;21.69;64.81
71457;BME280;59263;48.160;11.752;2022-09-13T10:11:52;95504.16;;;21.73;62.04
71457;BME280;59263;48.160;11.752;2022-09-13T10:14:29;95510.28;;;21.85;60.74
71457;BME280;59263;48.160;11.752;2022-09-13T10:19:50;95510.81;;;22.06;58.92
71457;BME280;59263;48.160;11.752;2022-09-13T10:22:18;95506.59;;;22.23;61.07
71457;BME280;59263;48.160;11.752;2022-09-13T10:24:43;95508.44;;;22.34;59.79
71457;BME280;59263;48.160;11.752;2022-09-13T10:27:32;95498.53;;;22.48;61.35
71457;BME280;59263;48.160;11.752;2022-09-13T10:29:59;95501.63;;;22.57;58.99
71457;BME280;59263;48.160;11.752;2022-09-13T10:32:26;95493.97;;;22.67;59.20
71457;BME280;59263;48.160;11.752;2022-09-13T10:34:54;95487.13;;;22.78;60.88
71457;BME280;59263;48.160;11.752;2022-09-13T10:37:27;95485.84;;;22.80;58.70
71457;BME280;59263;48.160;11.752;2022-09-13T10:40:07;95485.75;;;22.87;59.76
71457;BME280;59263;48.160;11.752;2022-09-13T10:42:37;95472.13;;;23.02;56.37
71457;BME280;59263;48.160;11.752;2022-09-13T10:45:07;95470.06;;;23.04;56.70
71457;BME280;59263;48.160;11.752;2022-09-13T10:47:38;95477.66;;;23.12;58.06
71457;BME280;59263;48.160;11.752;2022-09-13T10:50:30;95473.75;;;23.26;54.45
71457;BME280;59263;48.160;11.752;2022-09-13T10:52:59;95479.69;;;23.33;54.65
71457;BME280;59263;48.160;11.752;2022-09-13T10:55:26;95482.22;;;23.28;55.29
71457;BME280;59263;48.160;11.752;2022-09-13T11:05:42;95465.53;;;23.63;52.64
71457;BME280;59263;48.160;11.752;2022-09-13T11:08:17;95477.44;;;23.65;53.92
71457;BME280;59263;48.160;11.752;2022-09-13T11:10:51;95480.25;;;23.71;54.01
71457;BME280;59263;48.160;11.752;2022-09-13T11:13:22;95478.25;;;23.89;54.92
71457;BME280;59263;48.160;11.752;2022-09-13T11:16:01;95465.56;;;23.91;53.95
71457;BME280;59263;48.160;11.752;2022-09-13T11:27:01;95466.78;;;23.60;48.44
71457;BME280;59263;48.160;11.752;2022-09-13T11:29:46;95449.59;;;23.70;49.64
71457;BME280;59263;48.160;11.752;2022-09-13T11:35:16;95448.88;;;23.74;53.45
71457;BME280;59263;48.160;11.752;2022-09-13T11:40:59;95449.81;;;23.68;47.87
71457;BME280;59263;48.160;11.752;2022-09-13T11:51:45;95454.00;;;23.17;49.87
71457;BME280;59263;48.160;11.752;2022-09-13T11:54:32;95455.94;;;23.10;51.85
71457;BME280;59263;48.160;11.752;2022-09-13T11:57:11;95449.06;;;23.09;50.87
71457;BME280;59263;48.160;11.752;2022-09-13T11:59:42;95455.47;;;23.13;51.85
71457;BME280;59263;48.160;11.752;2022-09-13T12:05:20;95457.56;;;22.99;52.80
71457;BME280;59263;48.160;11.752;2022-09-13T12:08:04;95457.22;;;23.07;49.39
71457;BME280;59263;48.160;11.752;2022-09-13T12:13:24;95450.53;;;23.28;50.57
71457;BME280;59263;48.160;11.752;2022-09-13T12:15:58;95453.53;;;23.20;50.70
71457;BME280;59263;48.160;11.752;2022-09-13T12:18:31;95460.41;;;23.09;51.84
71457;BME280;59263;48.160;11.752;2022-09-13T12:21:11;95456.06;;;23.15;51.19
71457;BME280;59263;48.160;11.752;2022-09-13T12:26:36;95451.00;;;23.37;51.22
71457;BME280;59263;48.160;11.752;2022-09-13T12:29:13;95444.78;;;23.55;51.92
71457;BME280;59263;48.160;11.752;2022-09-13T12:31:39;95447.03;;;23.75;54.56
71457;BME280;59263;48.160;11.752;2022-09-13T12:34:08;95447.13;;;23.80;55.71
71457;BME280;59263;48.160;11.752;2022-09-13T12:36:55;95438.19;;;23.81;52.41
71457;BME280;59263;48.160;11.752;2022-09-13T12:39:44;95435.94;;;23.89;51.03
71457;BME280;59263;48.160;11.752;2022-09-13T12:45:53;95428.16;;;24.11;49.78
71457;BME280;59263;48.160;11.752;2022-09-13T13:00:21;95413.34;;;24.27;54.74
71457;BME280;59263;48.160;11.752;2022-09-13T13:05:28;95422.66;;;23.84;52.19
71457;BME280;59263;48.160;11.752;2022-09-13T13:08:01;95422.44;;;23.74;52.03
71457;BME280;59263;48.160;11.752;2022-09-13T13:10:31;95416.94;;;23.64;53.20
71457;BME280;59263;48.160;11.752;2022-09-13T13:21:21;95423.81;;;23.65;48.54
71457;BME280;59263;48.160;11.752;2022-09-13T13:23:47;95421.00;;;23.66;50.37
71457;BME280;59263;48.160;11.752;2022-09-13T13:33:52;95420.03;;;23.73;47.74
71457;BME280;59263;48.160;11.752;2022-09-13T13:36:43;95407.97;;;23.65;49.14
71457;BME280;59263;48.160;11.752;2022-09-13T13:39:32;95408.69;;;23.60;50.54
71457;BME280;59263;48.160;11.752;2022-09-13T13:44:55;95407.59;;;23.85;47.39
71457;BME280;59263;48.160;11.752;2022-09-13T13:50:15;95399.88;;;23.83;50.17
71457;BME280;59263;48.160;11.752;2022-09-13T13:55:39;95395.91;;;23.98;47.62
71457;BME280;59263;48.160;11.752;2022-09-13T13:58:25;95394.00;;;24.10;48.88
71457;BME280;59263;48.160;11.752;2022-09-13T14:00:52;95394.00;;;24.10;48.21
71457;BME280;59263;48.160;11.752;2022-09-13T14:06:18;95389.38;;;24.00;47.25
71457;BME280;59263;48.160;11.752;2022-09-13T14:09:04;95386.72;;;24.00;49.71
71457;BME280;59263;48.160;11.752;2022-09-13T14:16:56;95381.66;;;23.99;45.00
71457;BME280;59263;48.160;11.752;2022-09-13T14:19:28;95378.00;;;24.00;44.89
71457;BME280;59263;48.160;11.752;2022-09-13T14:24:49;95372.06;;;23.93;46.26
71457;BME280;59263;48.160;11.752;2022-09-13T14:27:28;95377.00;;;23.89;45.41
71457;BME280;59263;48.160;11.752;2022-09-13T14:29:57;95379.88;;;23.87;45.36
71457;BME280;59263;48.160;11.752;2022-09-13T14:32:26;95379.66;;;23.89;44.26
71457;BME280;59263;48.160;11.752;2022-09-13T14:35:00;95373.41;;;23.95;44.90
71457;BME280;59263;48.160;11.752;2022-09-13T14:37:31;95379.72;;;23.94;46.92
71457;BME280;59263;48.160;11.752;2022-09-13T14:39:59;95377.34;;;23.93;47.63
71457;BME280;59263;48.160;11.752;2022-09-13T14:42:25;95377.47;;;23.86;44.17
71457;BME280;59263;48.160;11.752;2022-09-13T14:44:51;95379.06;;;23.87;44.17
71457;BME280;59263;48.160;11.752;2022-09-13T14:50:11;95367.84;;;24.25;44.52
71457;BME280;59263;48.160;11.752;2022-09-13T14:52:46;95358.94;;;24.14;49.04
71457;BME280;59263;48.160;11.752;2022-09-13T14:55:16;95362.78;;;24.07;47.78
71457;BME280;59263;48.160;11.752;2022-09-13T14:57:46;95352.81;;;23.97;48.03
71457;BME280;59263;48.160;11.752;2022-09-13T15:00:19;95357.56;;;24.12;47.06
71457;BME280;59263;48.160;11.752;2022-09-13T15:02:51;95357.16;;;24.03;46.73
71457;BME280;59263;48.160;11.752;2022-09-13T15:05:18;95349.00;;;24.05;48.00
71457;BME280;59263;48.160;11.752;2022-09-13T15:07:45;95353.22;;;24.06;48.25
71457;BME280;59263;48.160;11.752;2022-09-13T15:12:36;95339.38;;;24.15;54.96
71457;BME280;59263;48.160;11.752;2022-09-13T15:15:25;95341.44;;;24.13;50.48
71457;BME280;59263;48.160;11.752;2022-09-13T15:20:21;95333.13;;;24.05;54.15
71457;BME280;59263;48.160;11.752;2022-09-13T15:22:47;95321.84;;;23.93;51.63
71457;BME280;59263;48.160;11.752;2022-09-13T15:25:19;95316.75;;;23.74;52.38
71457;BME280;59263;48.160;11.752;2022-09-13T15:27:47;95309.00;;;23.56;53.63
71457;BME280;59263;48.160;11.752;2022-09-13T15:30:30;95315.59;;;23.41;52.61
71457;BME280;59263;48.160;11.752;2022-09-13T15:33:25;95321.72;;;23.30;52.09
71457;BME280;59263;48.160;11.752;2022-09-13T15:35:51;95326.69;;;23.27;53.58
71457;BME280;59263;48.160;11.752;2022-09-13T15:38:28;95320.59;;;23.26;54.67
71457;BME280;59263;48.160;11.752;2022-09-13T15:41:10;95317.22;;;23.14;53.71
71457;BME280;59263;48.160;11.752;2022-09-13T15:43:36;95311.09;;;23.13;52.27
71457;BME280;59263;48.160;11.752;2022-09-13T15:46:02;95305.59;;;23.15;54.02
71457;BME280;59263;48.160;11.752;2022-09-13T15:48:30;95303.38;;;23.24;55.74
71457;BME280;59263;48.160;11.752;2022-09-13T15:51:08;95299.00;;;23.29;55.12
71457;BME280;59263;48.160;11.752;2022-09-13T15:53:45;95298.69;;;23.26;55.09